createdAt,value
2022-11-16T00:01:34.495Z,13.43
2022-11-16T00:03:56.729Z,13.00
2022-11-16T00:06:18.384Z,14.10
2022-11-16T00:08:41.104Z,13.33
2022-11-16T00:11:06.010Z,13.67
2022-11-16T00:13:27.230Z,13.63
2022-11-16T00:15:57.122Z,13.43
2022-11-16T00:18:18.245Z,14.23
2022-11-16T00:20:39.708Z,13.60
2022-11-16T00:23:00.731Z,13.00
2022-11-16T00:25:22.372Z,13.13
2022-11-16T00:27:44.871Z,14.07
2022-11-16T00:30:06.447Z,13.80
2022-11-16T00:32:29.136Z,12.80
2022-11-16T00:34:50.580Z,13.00
2022-11-16T00:37:11.854Z,12.13
2022-11-16T00:39:32.939Z,11.37
2022-11-16T00:41:54.243Z,11.43
2022-11-16T00:44:15.922Z,11.23
2022-11-16T00:46:37.047Z,12.00
2022-11-16T00:48:59.302Z,12.60
2022-11-16T00:51:20.759Z,12.37
2022-11-16T00:53:42.041Z,11.33
2022-11-16T00:56:03.272Z,11.57
2022-11-16T00:58:24.620Z,10.97
2022-11-16T01:00:46.094Z,10.43
2022-11-16T01:03:07.601Z,11.20
2022-11-16T01:05:30.410Z,11.23
2022-11-16T01:07:52.188Z,10.53
2022-11-16T01:10:14.253Z,12.00
2022-11-16T01:12:34.396Z,12.23
2022-11-16T01:14:55.816Z,11.27
2022-11-16T01:17:17.603Z,10.07
2022-11-16T01:19:38.989Z,10.27
2022-11-16T01:22:02.565Z,10.83
2022-11-16T01:24:24.915Z,10.27
2022-11-16T01:26:46.145Z,9.90
2022-11-16T01:29:07.472Z,10.03
2022-11-16T01:31:28.525Z,9.97
2022-11-16T01:33:49.840Z,9.83
2022-11-16T01:36:14.565Z,9.87
2022-11-16T01:38:37.726Z,10.60
2022-11-16T01:40:58.878Z,10.80
2022-11-16T01:43:21.659Z,11.07
2022-11-16T01:45:43.375Z,11.30
2022-11-16T01:48:04.985Z,12.20
2022-11-16T01:50:26.023Z,11.33
2022-11-16T01:52:52.497Z,11.77
2022-11-16T01:55:15.468Z,11.57
2022-11-16T01:57:38.928Z,11.80
2022-11-16T02:00:01.323Z,12.30
2022-11-16T02:02:22.793Z,12.10
2022-11-16T02:04:44.449Z,11.43
2022-11-16T02:07:10.951Z,12.03
2022-11-16T02:09:54.365Z,11.73
2022-11-16T02:12:24.398Z,12.63
2022-11-16T02:14:52.682Z,11.03
2022-11-16T02:17:20.785Z,12.00
2022-11-16T02:19:50.595Z,11.57
2022-11-16T02:22:18.822Z,12.50
2022-11-16T02:24:43.815Z,12.10
2022-11-16T02:27:28.495Z,12.50
2022-11-16T02:29:52.065Z,11.20
2022-11-16T02:32:14.464Z,12.80
2022-11-16T02:34:37.584Z,13.33
2022-11-16T02:37:00.651Z,12.03
2022-11-16T02:39:24.240Z,12.20
2022-11-16T02:41:47.892Z,12.70
2022-11-16T02:44:12.584Z,12.03
2022-11-16T02:46:37.748Z,12.63
2022-11-16T02:49:02.331Z,12.47
2022-11-16T02:51:24.792Z,12.13
2022-11-16T02:53:53.483Z,11.90
2022-11-16T02:56:15.008Z,11.93
2022-11-16T02:58:36.620Z,11.80
2022-11-16T03:01:01.495Z,11.80
2022-11-16T03:03:29.683Z,12.03
2022-11-16T03:05:52.807Z,11.73
2022-11-16T03:08:17.402Z,11.70
2022-11-16T03:10:57.608Z,11.93
2022-11-16T03:13:19.581Z,13.23
2022-11-16T03:15:42.310Z,12.00
2022-11-16T03:18:04.478Z,12.73
2022-11-16T03:20:28.911Z,12.03
2022-11-16T03:22:51.840Z,12.13
2022-11-16T03:25:14.077Z,12.20
2022-11-16T03:27:38.170Z,12.73
2022-11-16T03:30:03.251Z,13.13
2022-11-16T03:32:29.752Z,13.13
2022-11-16T03:34:53.054Z,12.70
2022-11-16T03:37:16.038Z,12.40
2022-11-16T03:39:39.538Z,11.90
2022-11-16T03:42:02.824Z,12.60
2022-11-16T03:44:30.990Z,12.30
2022-11-16T03:46:52.042Z,12.50
2022-11-16T03:49:13.265Z,12.70
2022-11-16T03:51:34.717Z,12.77
2022-11-16T03:53:57.075Z,13.27
2022-11-16T03:56:18.133Z,13.10
2022-11-16T03:58:39.637Z,13.53
2022-11-16T04:01:01.119Z,13.30
2022-11-16T04:03:22.808Z,14.10
2022-11-16T04:06:01.956Z,15.37
2022-11-16T04:08:40.942Z,15.87
2022-11-16T04:11:21.355Z,15.10
2022-11-16T04:14:02.267Z,14.50
2022-11-16T04:16:43.967Z,13.83
2022-11-16T04:19:22.947Z,14.00
2022-11-16T04:22:03.314Z,14.23
2022-11-16T04:24:26.040Z,13.97
2022-11-16T04:27:07.492Z,15.03
2022-11-16T04:29:28.954Z,13.57
2022-11-16T04:32:07.853Z,14.13
2022-11-16T04:34:46.671Z,13.33
2022-11-16T04:37:24.566Z,13.70
2022-11-16T04:39:45.930Z,13.90
2022-11-16T04:42:16.028Z,14.10
2022-11-16T04:44:55.193Z,14.00
2022-11-16T04:47:16.504Z,14.20
2022-11-16T04:49:37.514Z,14.80
2022-11-16T04:51:58.950Z,13.37
2022-11-16T04:54:20.278Z,13.40
2022-11-16T04:56:41.624Z,13.60
2022-11-16T04:59:04.108Z,14.17
2022-11-16T05:01:45.327Z,13.67
2022-11-16T05:04:06.202Z,13.43
2022-11-16T05:06:27.607Z,12.77
2022-11-16T05:08:48.954Z,13.53
2022-11-16T05:11:10.415Z,13.17
2022-11-16T05:13:31.556Z,13.17
2022-11-16T05:15:54.200Z,14.77
2022-11-16T05:18:15.456Z,13.03
2022-11-16T05:20:54.168Z,12.90
2022-11-16T05:23:29.386Z,12.17
2022-11-16T05:25:50.526Z,15.50
2022-11-16T05:28:11.924Z,16.93
2022-11-16T05:30:32.966Z,16.17
2022-11-16T05:32:55.872Z,15.83
2022-11-16T05:35:17.384Z,14.93
2022-11-16T05:37:38.482Z,14.93
2022-11-16T05:39:59.711Z,15.77
2022-11-16T05:42:20.961Z,16.73
2022-11-16T05:44:41.999Z,16.13
2022-11-16T05:47:03.442Z,14.87
2022-11-16T05:49:26.990Z,14.80
2022-11-16T05:51:48.350Z,13.20
2022-11-16T05:54:09.594Z,14.30
2022-11-16T05:56:31.002Z,13.77
2022-11-16T05:58:52.374Z,13.10
2022-11-16T06:01:13.740Z,11.90
2022-11-16T06:03:36.258Z,11.73
2022-11-16T06:05:59.205Z,10.80
2022-11-16T06:08:20.574Z,11.27
2022-11-16T06:10:41.943Z,10.17
2022-11-16T06:13:03.426Z,10.03
2022-11-16T06:15:24.561Z,9.77
2022-11-16T06:17:45.952Z,10.47
2022-11-16T06:20:07.962Z,10.87
2022-11-16T06:22:30.541Z,10.47
2022-11-16T06:24:51.711Z,9.47
2022-11-16T06:27:12.941Z,10.17
2022-11-16T06:29:34.180Z,9.97
2022-11-16T06:31:55.453Z,10.33
2022-11-16T06:34:16.700Z,9.83
2022-11-16T06:36:37.668Z,9.53
2022-11-16T06:39:01.636Z,9.20
2022-11-16T06:41:23.210Z,9.67
2022-11-16T06:43:44.287Z,8.97
2022-11-16T06:46:05.950Z,9.13
2022-11-16T06:48:27.378Z,9.43
2022-11-16T06:50:49.634Z,8.63
2022-11-16T06:53:10.907Z,9.07
2022-11-16T06:55:33.610Z,9.57
2022-11-16T06:57:54.795Z,9.43
2022-11-16T07:00:16.720Z,11.83
2022-11-16T07:02:37.868Z,9.37
2022-11-16T07:05:03.289Z,8.53
2022-11-16T07:07:25.149Z,10.37
2022-11-16T07:09:46.543Z,8.47
2022-11-16T07:12:09.576Z,9.43
2022-11-16T07:14:31.009Z,11.20
2022-11-16T07:16:57.888Z,10.83
2022-11-16T07:19:20.554Z,9.77
2022-11-16T07:21:41.756Z,9.57
2022-11-16T07:24:02.976Z,9.83
2022-11-16T07:26:24.482Z,10.00
2022-11-16T07:28:48.597Z,10.10
2022-11-16T07:31:10.742Z,9.80
2022-11-16T07:33:32.137Z,9.80
2022-11-16T07:35:53.301Z,10.30
2022-11-16T07:38:18.011Z,9.93
2022-11-16T07:40:39.604Z,9.73
2022-11-16T07:43:00.967Z,9.23
2022-11-16T07:45:23.499Z,9.97
2022-11-16T07:47:44.729Z,9.13
2022-11-16T07:50:06.581Z,10.33
2022-11-16T07:52:27.717Z,8.60
2022-11-16T07:54:48.811Z,8.80
2022-11-16T07:57:10.177Z,8.17
2022-11-16T07:59:31.702Z,9.10
2022-11-16T08:01:55.729Z,12.57
2022-11-16T08:04:17.573Z,12.43
2022-11-16T08:06:38.691Z,11.73
2022-11-16T08:09:00.831Z,11.37
2022-11-16T08:11:22.210Z,10.57
2022-11-16T08:13:43.908Z,9.57
2022-11-16T08:16:07.941Z,9.33
2022-11-16T08:18:30.813Z,8.93
2022-11-16T08:20:52.427Z,9.03
2022-11-16T08:23:13.899Z,9.67
2022-11-16T08:25:35.654Z,9.97
2022-11-16T08:27:57.220Z,10.53
2022-11-16T08:30:18.526Z,11.40
2022-11-16T08:32:42.047Z,12.60
2022-11-16T08:35:05.131Z,11.50
2022-11-16T08:37:28.533Z,8.90
2022-11-16T08:39:50.041Z,8.63
2022-11-16T08:42:11.147Z,8.50
2022-11-16T08:44:35.452Z,7.93
2022-11-16T08:46:56.982Z,7.60
2022-11-16T08:49:18.363Z,7.40
2022-11-16T08:51:41.533Z,7.80
2022-11-16T08:54:03.668Z,7.67
2022-11-16T08:56:26.228Z,6.73
2022-11-16T08:58:49.507Z,7.33
2022-11-16T09:01:15.030Z,20.13
2022-11-16T09:03:37.011Z,12.97
2022-11-16T09:05:59.974Z,10.33
2022-11-16T09:08:22.337Z,14.37
2022-11-16T09:10:43.642Z,14.83
2022-11-16T09:13:04.883Z,9.87
2022-11-16T09:15:28.035Z,11.23
2022-11-16T09:17:49.919Z,5.97
2022-11-16T09:20:11.722Z,19.77
2022-11-16T09:22:33.026Z,5.37
2022-11-16T09:24:55.830Z,9.33
2022-11-16T09:27:18.959Z,6.50
2022-11-16T09:29:40.571Z,6.03
2022-11-16T09:32:02.205Z,4.63
2022-11-16T09:34:23.600Z,5.50
2022-11-16T09:36:46.135Z,4.93
2022-11-16T09:39:29.417Z,9.00
2022-11-16T09:42:01.441Z,5.30
2022-11-16T09:44:34.933Z,5.03
2022-11-16T09:46:57.503Z,4.17
2022-11-16T09:49:20.498Z,3.17
2022-11-16T09:51:43.136Z,2.30
2022-11-16T09:54:06.560Z,2.60
2022-11-16T09:56:29.490Z,3.33
2022-11-16T09:59:17.944Z,3.10
2022-11-16T10:01:42.927Z,3.30
2022-11-16T10:04:07.754Z,4.17
2022-11-16T10:06:34.008Z,8.17
2022-11-16T10:08:56.619Z,3.60
2022-11-16T10:11:26.807Z,3.17
2022-11-16T10:13:52.399Z,2.40
2022-11-16T10:16:15.513Z,2.40
2022-11-16T10:18:46.437Z,4.40
2022-11-16T10:21:17.855Z,2.67
2022-11-16T10:23:46.127Z,2.00
2022-11-16T10:26:13.039Z,4.50
2022-11-16T10:28:54.209Z,3.57
2022-11-16T10:31:19.009Z,6.00
2022-11-16T10:33:43.083Z,2.60
2022-11-16T10:36:09.654Z,1.63
2022-11-16T10:38:31.834Z,1.80
2022-11-16T10:40:54.407Z,2.47
2022-11-16T10:43:16.843Z,2.00
2022-11-16T10:45:40.307Z,1.80
2022-11-16T10:48:15.076Z,2.60
2022-11-16T10:50:38.663Z,2.30
2022-11-16T10:53:01.895Z,1.60
2022-11-16T10:55:23.552Z,1.67
2022-11-16T10:57:55.033Z,1.70
2022-11-16T11:00:34.465Z,1.80
2022-11-16T11:02:56.297Z,1.97
2022-11-16T11:05:20.208Z,1.63
2022-11-16T11:07:55.454Z,2.00
2022-11-16T11:10:56.009Z,2.50
2022-11-16T11:13:29.429Z,2.10
2022-11-16T11:15:51.414Z,3.37
2022-11-16T11:18:20.896Z,3.10
2022-11-16T11:20:45.272Z,1.50
2022-11-16T11:23:15.036Z,1.47
2022-11-16T11:25:37.795Z,1.80
2022-11-16T11:28:06.684Z,2.83
2022-11-16T11:30:29.127Z,1.50
2022-11-16T11:32:52.881Z,1.50
2022-11-16T11:35:23.509Z,1.57
2022-11-16T11:37:45.269Z,1.57
2022-11-16T11:40:20.043Z,1.30
2022-11-16T11:42:43.962Z,1.47
2022-11-16T11:45:07.769Z,1.80
2022-11-16T11:48:02.976Z,1.67
2022-11-16T11:50:26.966Z,2.47
2022-11-16T11:52:54.871Z,2.20
2022-11-16T11:55:17.375Z,2.60
2022-11-16T11:57:43.687Z,3.67
2022-11-16T12:00:07.061Z,3.03
2022-11-16T12:02:38.854Z,5.93
2022-11-16T12:05:17.906Z,2.50
2022-11-16T12:07:47.690Z,1.80
2022-11-16T12:10:12.259Z,2.30
2022-11-16T12:12:38.781Z,4.10
2022-11-16T12:15:13.474Z,5.53
2022-11-16T12:17:42.213Z,3.70
2022-11-16T12:20:10.171Z,3.10
2022-11-16T12:22:41.278Z,3.67
2022-11-16T12:25:11.154Z,3.60
2022-11-16T12:27:38.487Z,2.40
2022-11-16T12:30:03.487Z,1.50
2022-11-16T12:32:33.684Z,1.67
2022-11-16T12:35:03.709Z,2.10
2022-11-16T12:37:27.187Z,1.67
2022-11-16T12:39:59.082Z,1.43
2022-11-16T12:42:27.123Z,1.40
2022-11-16T12:44:57.742Z,1.40
2022-11-16T12:47:22.757Z,1.60
2022-11-16T12:49:57.231Z,1.30
2022-11-16T12:52:23.138Z,1.00
2022-11-16T12:55:25.363Z,1.67
2022-11-16T12:57:48.454Z,1.20
2022-11-16T13:00:10.946Z,1.30
2022-11-16T13:02:41.219Z,1.67
2022-11-16T13:05:05.833Z,2.00
2022-11-16T13:07:30.180Z,1.53
2022-11-16T13:09:53.670Z,1.60
2022-11-16T13:12:17.369Z,2.10
2022-11-16T13:14:45.070Z,2.07
2022-11-16T13:17:07.452Z,2.23
2022-11-16T13:19:29.172Z,1.43
2022-11-16T13:21:54.818Z,1.90
2022-11-16T13:24:26.810Z,2.00
2022-11-16T13:26:52.814Z,1.73
2022-11-16T13:29:17.972Z,1.93
2022-11-16T13:31:43.997Z,2.07
2022-11-16T13:34:07.792Z,2.07
2022-11-16T13:36:46.392Z,1.80
2022-11-16T13:39:07.881Z,1.90
2022-11-16T13:41:31.725Z,1.97
2022-11-16T13:43:53.203Z,2.40
2022-11-16T13:46:48.194Z,1.90
2022-11-16T13:48:57.386Z,1.37
2022-11-16T13:51:19.848Z,1.77
2022-11-16T13:56:29.524Z,3.30
2022-11-16T13:58:51.914Z,5.00
2022-11-16T14:01:15.462Z,8.13
2022-11-16T14:03:39.560Z,1.50
2022-11-16T14:06:02.069Z,2.23
2022-11-16T14:08:44.111Z,2.70
2022-11-16T14:11:06.130Z,1.80
2022-11-16T14:13:47.189Z,2.67
2022-11-16T14:16:27.665Z,1.40
2022-11-16T14:18:49.622Z,1.50
2022-11-16T14:21:16.690Z,1.30
2022-11-16T14:24:01.101Z,1.30
2022-11-16T14:26:24.377Z,1.30
2022-11-16T14:29:03.586Z,2.10
2022-11-16T14:31:27.300Z,1.90
2022-11-16T14:33:50.682Z,1.60
2022-11-16T14:36:12.429Z,1.60
2022-11-16T14:38:36.388Z,1.50
2022-11-16T14:40:59.954Z,1.57
2022-11-16T14:43:24.609Z,2.10
2022-11-16T14:45:48.170Z,2.73
2022-11-16T14:48:16.007Z,2.20
2022-11-16T14:50:40.972Z,1.80
2022-11-16T14:53:04.588Z,1.90
2022-11-16T14:55:27.583Z,1.70
2022-11-16T14:57:49.149Z,2.00
2022-11-16T15:00:11.750Z,1.80
2022-11-16T15:02:33.383Z,1.70
2022-11-16T15:04:54.715Z,1.37
2022-11-16T15:07:18.383Z,1.60
2022-11-16T15:09:40.846Z,1.60
2022-11-16T15:12:22.153Z,1.67
2022-11-16T15:14:47.192Z,1.40
2022-11-16T15:17:08.277Z,1.63
2022-11-16T15:19:30.636Z,1.87
2022-11-16T15:21:53.189Z,1.50
2022-11-16T15:24:31.007Z,1.60
2022-11-16T15:26:53.162Z,1.40
2022-11-16T15:29:17.968Z,1.50
2022-11-16T15:31:42.626Z,1.67
2022-11-16T15:34:03.638Z,1.83
2022-11-16T15:36:32.647Z,1.90
2022-11-16T15:38:54.726Z,1.77
2022-11-16T15:41:16.823Z,1.70
2022-11-16T15:43:49.576Z,1.67
2022-11-16T15:46:14.351Z,1.63
2022-11-16T15:48:38.415Z,1.73
2022-11-16T15:51:06.582Z,1.77
2022-11-16T15:53:38.327Z,1.87
2022-11-16T15:55:59.414Z,2.00
2022-11-16T15:58:25.785Z,1.90
2022-11-16T16:00:48.250Z,1.63
2022-11-16T16:03:21.450Z,1.90
2022-11-16T16:05:42.599Z,1.67
2022-11-16T16:08:05.927Z,1.27
2022-11-16T16:10:27.752Z,1.30
2022-11-16T16:12:50.946Z,1.63
2022-11-16T16:15:22.841Z,1.60
2022-11-16T16:17:47.035Z,1.50
2022-11-16T16:20:18.265Z,1.20
2022-11-16T16:22:39.939Z,1.23
2022-11-16T16:25:01.965Z,1.40
2022-11-16T16:27:24.598Z,1.30
2022-11-16T16:29:46.803Z,1.70
2022-11-16T16:32:10.664Z,2.07
2022-11-16T16:34:31.946Z,3.20
2022-11-16T16:36:54.900Z,2.40
2022-11-16T16:39:16.662Z,2.50
2022-11-16T16:41:37.713Z,4.93
2022-11-16T16:43:59.027Z,4.40
2022-11-16T16:46:22.945Z,7.90
2022-11-16T16:48:44.912Z,9.97
2022-11-16T16:51:08.538Z,8.67
2022-11-16T16:53:31.292Z,6.40
2022-11-16T16:55:53.041Z,6.50
2022-11-16T16:58:15.416Z,5.60
2022-11-16T17:00:37.235Z,5.40
2022-11-16T17:02:59.338Z,5.07
2022-11-16T17:05:23.469Z,4.57
2022-11-16T17:07:44.556Z,4.73
2022-11-16T17:10:08.113Z,5.10
2022-11-16T17:12:29.034Z,4.50
2022-11-16T17:14:52.284Z,4.30
2022-11-16T17:17:14.094Z,3.93
2022-11-16T17:19:36.528Z,5.60
2022-11-16T17:21:58.198Z,5.60
2022-11-16T17:24:20.111Z,7.33
2022-11-16T17:26:42.943Z,6.03
2022-11-16T17:29:04.537Z,5.83
2022-11-16T17:31:26.693Z,5.80
2022-11-16T17:33:47.957Z,5.40
2022-11-16T17:36:11.210Z,4.70
2022-11-16T17:38:32.948Z,4.90
2022-11-16T17:40:54.431Z,4.70
2022-11-16T17:43:17.075Z,3.30
2022-11-16T17:45:38.115Z,3.30
2022-11-16T17:47:59.315Z,4.43
2022-11-16T17:50:21.110Z,4.63
2022-11-16T17:52:42.533Z,3.63
2022-11-16T17:55:04.138Z,5.03
2022-11-16T17:57:28.566Z,5.33
2022-11-16T17:59:55.516Z,4.77
2022-11-16T18:02:18.859Z,4.00
2022-11-16T18:04:48.130Z,4.20
2022-11-16T18:07:13.920Z,4.43
2022-11-16T18:09:36.258Z,4.10
2022-11-16T18:11:58.444Z,4.43
2022-11-16T18:14:22.288Z,4.50
2022-11-16T18:16:47.805Z,5.33
2022-11-16T18:19:10.174Z,8.13
2022-11-16T18:21:34.782Z,8.47
2022-11-16T18:23:57.048Z,7.70
2022-11-16T18:26:20.930Z,7.17
2022-11-16T18:28:42.290Z,5.97
2022-11-16T18:31:05.386Z,6.43
2022-11-16T18:33:30.554Z,7.43
2022-11-16T18:35:52.234Z,7.20
2022-11-16T18:38:13.765Z,8.70
2022-11-16T18:40:35.206Z,9.17
2022-11-16T18:42:58.402Z,11.77
2022-11-16T18:45:20.151Z,13.87
2022-11-16T18:47:43.975Z,18.37
2022-11-16T18:50:18.926Z,16.73
2022-11-16T18:52:40.538Z,13.60
2022-11-16T18:55:02.540Z,13.93
2022-11-16T18:57:23.745Z,17.13
2022-11-16T18:59:46.573Z,13.80
2022-11-16T19:02:07.862Z,13.03
2022-11-16T19:04:29.543Z,14.17
2022-11-16T19:06:52.400Z,12.73
2022-11-16T19:09:13.467Z,12.73
2022-11-16T19:11:34.945Z,22.63
2022-11-16T19:16:05.816Z,13.60
2022-11-16T19:18:27.241Z,12.40
2022-11-16T19:20:48.307Z,11.17
2022-11-16T19:23:11.339Z,10.60
2022-11-16T19:25:32.908Z,15.03
2022-11-16T19:27:54.319Z,10.70
2022-11-16T19:30:16.194Z,13.67
2022-11-16T19:32:37.531Z,10.80
2022-11-16T19:34:59.019Z,9.03
2022-11-16T19:37:20.327Z,11.73
2022-11-16T19:39:42.891Z,12.87
2022-11-16T19:42:03.930Z,15.87
2022-11-16T19:44:25.663Z,12.70
2022-11-16T19:46:47.252Z,11.10
2022-11-16T19:49:13.443Z,11.03
2022-11-16T19:51:37.280Z,14.67
2022-11-16T19:53:59.080Z,16.90
2022-11-16T19:56:22.506Z,13.43
2022-11-16T19:58:43.595Z,13.80
2022-11-16T20:01:06.066Z,10.70
2022-11-16T20:03:27.754Z,10.63
2022-11-16T20:05:49.339Z,10.73
2022-11-16T20:08:10.959Z,10.30
2022-11-16T20:10:34.383Z,9.63
2022-11-16T20:12:58.271Z,10.27
2022-11-16T20:15:19.294Z,10.20
2022-11-16T20:17:40.676Z,9.93
2022-11-16T20:20:02.009Z,10.77
2022-11-16T20:22:23.161Z,15.00
2022-11-16T20:24:44.316Z,16.00
2022-11-16T20:27:05.644Z,13.03
2022-11-16T20:29:28.059Z,18.37
2022-11-16T20:31:49.503Z,16.37
2022-11-16T20:34:13.949Z,14.70
2022-11-16T20:36:35.867Z,14.30
2022-11-16T20:38:57.408Z,13.80
2022-11-16T20:41:19.226Z,14.37
2022-11-16T20:43:40.459Z,15.60
2022-11-16T20:46:02.871Z,14.63
2022-11-16T20:48:24.074Z,74.47
2022-11-16T20:50:45.732Z,27.20
2022-11-16T20:53:07.140Z,16.10
2022-11-16T20:55:28.251Z,16.33
2022-11-16T20:57:49.619Z,14.70
2022-11-16T21:00:11.642Z,12.57
2022-11-16T21:02:34.066Z,12.13
2022-11-16T21:05:00.055Z,11.63
2022-11-16T21:07:21.908Z,12.83
2022-11-16T21:09:57.030Z,15.43
2022-11-16T21:12:41.520Z,33.50
2022-11-16T21:15:04.189Z,18.50
2022-11-16T21:17:25.512Z,15.27
2022-11-16T21:20:12.345Z,33.57
2022-11-16T21:22:32.302Z,41.20
2022-11-16T21:24:53.876Z,19.60
2022-11-16T21:27:15.130Z,25.03
2022-11-16T21:29:36.517Z,20.37
2022-11-16T21:31:57.399Z,23.13
2022-11-16T21:34:20.195Z,15.23
2022-11-16T21:36:42.884Z,28.23
2022-11-16T21:39:03.961Z,17.57
2022-11-16T21:41:25.891Z,19.83
2022-11-16T21:43:47.168Z,17.87
2022-11-16T21:46:08.801Z,16.90
2022-11-16T21:48:31.740Z,16.37
2022-11-16T21:51:00.259Z,16.47
2022-11-16T21:53:22.593Z,16.97
2022-11-16T21:55:49.510Z,14.67
2022-11-16T21:58:10.823Z,16.27
2022-11-16T22:00:32.390Z,17.37
2022-11-16T22:02:53.459Z,16.53
2022-11-16T22:05:32.307Z,15.93
2022-11-16T22:07:53.800Z,16.33
2022-11-16T22:10:16.515Z,13.87
2022-11-16T22:12:38.109Z,17.57
2022-11-16T22:14:59.434Z,16.10
2022-11-16T22:17:20.494Z,18.77
2022-11-16T22:19:41.955Z,17.13
2022-11-16T22:22:03.401Z,13.67
2022-11-16T22:24:24.672Z,14.23
2022-11-16T22:26:47.365Z,13.37
2022-11-16T22:29:08.527Z,13.60
2022-11-16T22:31:29.854Z,12.83
2022-11-16T22:33:52.497Z,13.37
2022-11-16T22:36:14.361Z,14.40
2022-11-16T22:38:35.930Z,13.50
2022-11-16T22:40:57.835Z,14.43
2022-11-16T22:43:21.015Z,15.70
2022-11-16T22:45:42.360Z,14.67
2022-11-16T22:48:03.836Z,14.17
2022-11-16T22:50:25.421Z,14.20
2022-11-16T22:52:46.935Z,14.10
2022-11-16T22:55:08.271Z,13.97
2022-11-16T22:57:29.675Z,13.63
2022-11-16T22:59:52.239Z,13.13
2022-11-16T23:02:13.492Z,12.47
2022-11-16T23:04:34.766Z,12.33
2022-11-16T23:06:56.148Z,11.83
2022-11-16T23:09:17.423Z,10.67
2022-11-16T23:11:56.314Z,11.67
2022-11-16T23:14:35.727Z,12.17
2022-11-16T23:16:58.534Z,10.90
2022-11-16T23:19:37.787Z,12.53
2022-11-16T23:22:16.725Z,11.63
2022-11-16T23:24:55.664Z,12.90
2022-11-16T23:27:32.097Z,11.80
2022-11-16T23:29:54.516Z,12.50
2022-11-16T23:32:17.030Z,12.77
2022-11-16T23:34:38.047Z,13.07
2022-11-16T23:37:02.592Z,12.73
2022-11-16T23:39:23.977Z,12.87
2022-11-16T23:42:02.997Z,17.53
2022-11-16T23:44:24.490Z,17.73
2022-11-16T23:46:45.867Z,15.00
2022-11-16T23:49:08.214Z,14.40
2022-11-16T23:51:29.669Z,15.73
2022-11-16T23:53:51.782Z,18.07
2022-11-16T23:56:13.109Z,18.97
2022-11-16T23:58:34.583Z,17.23
